createdAt,value
2022-10-19T00:00:50.571Z,8.05
2022-10-19T00:05:49.855Z,9.20
2022-10-19T00:08:16.477Z,10.02
2022-10-19T00:10:43.230Z,11.52
2022-10-19T00:13:09.895Z,9.98
2022-10-19T00:15:40.594Z,10.93
2022-10-19T00:18:08.741Z,8.35
2022-10-19T00:20:36.955Z,12.38
2022-10-19T00:23:04.094Z,10.90
2022-10-19T00:25:30.878Z,10.35
2022-10-19T00:30:24.133Z,26.80
2022-10-19T00:32:50.831Z,20.15
2022-10-19T00:35:17.566Z,14.68
2022-10-19T00:37:44.195Z,11.35
2022-10-19T00:40:11.547Z,14.40
2022-10-19T00:42:38.322Z,13.02
2022-10-19T00:47:39.259Z,13.35
2022-10-19T00:50:06.714Z,10.02
2022-10-19T00:52:33.571Z,12.60
2022-10-19T00:55:01.597Z,9.57
2022-10-19T00:57:31.029Z,13.45
2022-10-19T00:59:59.570Z,5.38
2022-10-19T01:02:26.518Z,18.38
2022-10-19T01:04:53.792Z,10.38
2022-10-19T01:07:20.939Z,7.03
2022-10-19T01:09:47.705Z,7.65
2022-10-19T01:12:32.648Z,12.05
2022-10-19T01:15:14.337Z,7.85
2022-10-19T01:18:05.705Z,7.00
2022-10-19T01:20:56.913Z,18.65
2022-10-19T01:23:23.511Z,7.65
2022-10-19T01:26:15.750Z,6.45
2022-10-19T01:29:13.318Z,9.50
2022-10-19T01:31:54.026Z,11.93
2022-10-19T01:34:32.596Z,11.52
2022-10-19T01:37:04.329Z,12.95
2022-10-19T01:39:56.976Z,10.93
2022-10-19T01:42:48.605Z,7.57
2022-10-19T01:45:37.581Z,10.10
2022-10-19T01:48:12.471Z,11.23
2022-10-19T01:51:09.214Z,10.30
2022-10-19T01:53:41.536Z,12.15
2022-10-19T01:56:09.791Z,11.00
2022-10-19T01:58:38.837Z,8.48
2022-10-19T02:01:09.094Z,9.23
2022-10-19T02:03:37.762Z,16.55
2022-10-19T02:06:07.237Z,10.77
2022-10-19T02:08:40.561Z,22.63
2022-10-19T02:11:07.918Z,12.93
2022-10-19T02:13:36.053Z,13.27
2022-10-19T02:16:07.697Z,12.32
2022-10-19T02:18:39.500Z,12.98
2022-10-19T02:21:07.456Z,15.75
2022-10-19T02:23:34.389Z,15.55
2022-10-19T02:26:01.338Z,9.57
2022-10-19T02:28:30.076Z,16.50
2022-10-19T02:30:58.214Z,18.10
2022-10-19T02:33:25.376Z,11.85
2022-10-19T02:35:52.113Z,12.30
2022-10-19T02:38:22.733Z,11.98
2022-10-19T02:40:57.595Z,12.50
2022-10-19T02:43:26.652Z,7.45
2022-10-19T02:46:02.235Z,10.70
2022-10-19T02:48:32.063Z,9.25
2022-10-19T02:50:58.761Z,12.40
2022-10-19T02:53:25.506Z,17.35
2022-10-19T02:58:18.860Z,30.20
2022-10-19T03:03:12.326Z,12.40
2022-10-19T03:05:39.218Z,8.70
2022-10-19T03:08:06.132Z,16.65
2022-10-19T03:10:32.844Z,13.30
2022-10-19T03:12:59.770Z,18.42
2022-10-19T03:15:29.042Z,9.63
2022-10-19T03:17:56.592Z,12.30
2022-10-19T03:20:23.562Z,13.85
2022-10-19T03:22:50.742Z,8.77
2022-10-19T03:25:17.476Z,12.88
2022-10-19T03:27:44.142Z,13.55
2022-10-19T03:30:11.105Z,11.88
2022-10-19T03:32:37.752Z,9.73
2022-10-19T03:35:04.845Z,21.40
2022-10-19T03:37:31.836Z,8.13
2022-10-19T03:39:58.768Z,8.13
2022-10-19T03:42:25.411Z,11.10
2022-10-19T03:44:52.087Z,18.38
2022-10-19T03:49:45.588Z,17.83
2022-10-19T03:52:12.280Z,8.85
2022-10-19T03:54:38.997Z,6.88
2022-10-19T03:57:05.746Z,13.93
2022-10-19T04:01:59.235Z,9.52
2022-10-19T04:04:25.969Z,6.70
2022-10-19T04:09:22.421Z,9.93
2022-10-19T04:11:49.279Z,9.95
2022-10-19T04:16:58.992Z,9.13
2022-10-19T04:19:25.634Z,7.85
2022-10-19T04:21:52.262Z,8.07
2022-10-19T04:24:19.319Z,8.55
2022-10-19T04:26:50.922Z,7.97
2022-10-19T04:29:19.539Z,10.65
2022-10-19T04:31:48.510Z,15.63
2022-10-19T04:34:15.744Z,9.65
2022-10-19T04:36:42.482Z,9.52
2022-10-19T04:41:37.160Z,20.13
2022-10-19T04:44:06.534Z,20.15
2022-10-19T04:46:33.526Z,14.82
2022-10-19T04:49:00.333Z,26.10
2022-10-19T04:53:59.297Z,29.97
2022-10-19T04:56:27.416Z,18.50
2022-10-19T04:58:56.722Z,10.23
2022-10-19T05:01:24.424Z,13.77
2022-10-19T05:06:29.163Z,11.95
2022-10-19T05:08:56.461Z,15.05
2022-10-19T05:11:23.277Z,15.55
2022-10-19T05:16:20.222Z,14.45
2022-10-19T05:18:49.010Z,14.55
2022-10-19T05:21:16.479Z,13.07
2022-10-19T05:23:43.273Z,9.48
2022-10-19T05:26:17.252Z,8.98
2022-10-19T05:28:47.948Z,11.70
2022-10-19T05:31:17.372Z,13.45
2022-10-19T05:33:44.849Z,9.57
2022-10-19T05:36:17.747Z,16.60
2022-10-19T05:38:45.726Z,34.90
2022-10-19T05:41:13.104Z,29.13
2022-10-19T05:43:41.670Z,27.95
2022-10-19T05:46:11.141Z,20.10
2022-10-19T05:48:38.079Z,15.07
2022-10-19T05:51:07.178Z,15.88
2022-10-19T05:53:34.377Z,21.55
2022-10-19T05:56:01.480Z,19.08
2022-10-19T05:58:28.133Z,19.35
2022-10-19T06:00:57.024Z,12.80
2022-10-19T06:03:25.066Z,13.52
2022-10-19T06:05:52.759Z,13.73
2022-10-19T06:08:20.917Z,13.75
2022-10-19T06:10:49.068Z,14.98
2022-10-19T06:13:18.279Z,21.38
2022-10-19T06:15:45.000Z,13.63
2022-10-19T06:18:13.089Z,14.32
2022-10-19T06:20:42.010Z,31.20
2022-10-19T06:23:09.109Z,13.43
2022-10-19T06:25:37.541Z,10.98
2022-10-19T06:28:04.833Z,9.50
2022-10-19T06:30:31.669Z,17.65
2022-10-19T06:35:25.554Z,16.45
2022-10-19T06:40:18.821Z,9.27
2022-10-19T06:42:45.565Z,9.50
2022-10-19T06:45:12.208Z,13.85
2022-10-19T06:47:39.222Z,17.90
2022-10-19T06:50:07.304Z,16.38
2022-10-19T06:52:35.731Z,25.38
2022-10-19T06:55:03.141Z,12.68
2022-10-19T06:57:29.881Z,16.17
2022-10-19T06:59:56.497Z,10.43
2022-10-19T07:02:24.216Z,17.77
2022-10-19T07:04:50.862Z,13.63
2022-10-19T07:07:17.581Z,22.88
2022-10-19T07:12:10.912Z,14.65
2022-10-19T07:14:39.528Z,12.18
2022-10-19T07:17:07.570Z,16.73
2022-10-19T07:19:34.321Z,18.58
2022-10-19T07:24:27.618Z,15.18
2022-10-19T07:26:54.441Z,12.18
2022-10-19T07:29:21.555Z,14.20
2022-10-19T07:31:48.267Z,17.60
2022-10-19T07:34:16.076Z,15.40
2022-10-19T07:36:46.117Z,21.58
2022-10-19T07:39:13.121Z,31.05
2022-10-19T07:41:40.086Z,12.02
2022-10-19T07:44:07.475Z,14.10
2022-10-19T07:46:38.588Z,17.30
2022-10-19T07:49:09.815Z,14.38
2022-10-19T07:51:38.241Z,12.98
2022-10-19T07:54:05.733Z,17.25
2022-10-19T07:56:32.734Z,17.27
2022-10-19T07:59:00.217Z,18.08
2022-10-19T08:01:29.856Z,13.90
2022-10-19T08:06:45.144Z,10.55
2022-10-19T08:11:58.566Z,15.27
2022-10-19T08:14:25.900Z,13.30
2022-10-19T08:16:52.587Z,13.63
2022-10-19T08:19:19.233Z,24.63
2022-10-19T08:21:47.028Z,16.73
2022-10-19T08:24:15.890Z,20.48
2022-10-19T08:26:43.298Z,21.35
2022-10-19T08:29:18.659Z,21.10
2022-10-19T08:31:46.957Z,26.02
2022-10-19T08:34:14.168Z,16.98
2022-10-19T08:39:09.859Z,25.88
2022-10-19T08:41:51.680Z,24.02
2022-10-19T08:44:21.328Z,27.35
2022-10-19T08:47:12.936Z,30.05
2022-10-19T08:49:41.543Z,35.05
2022-10-19T08:52:12.471Z,36.80
2022-10-19T08:54:51.017Z,23.10
2022-10-19T08:57:40.069Z,24.27
2022-10-19T09:00:15.858Z,28.33
2022-10-19T09:03:04.112Z,28.42
2022-10-19T09:06:05.690Z,24.20
2022-10-19T09:08:33.778Z,28.10
2022-10-19T09:11:00.676Z,31.30
2022-10-19T09:16:19.492Z,28.02
2022-10-19T09:18:47.131Z,28.52
2022-10-19T09:21:46.345Z,30.48
2022-10-19T09:24:29.855Z,47.55
2022-10-19T09:26:59.742Z,32.45
2022-10-19T09:29:36.295Z,31.02
2022-10-19T09:32:10.408Z,36.47
2022-10-19T09:34:42.832Z,29.13
2022-10-19T09:37:20.060Z,26.23
2022-10-19T09:39:54.014Z,28.40
2022-10-19T09:42:32.995Z,25.85
2022-10-19T09:45:11.326Z,22.92
2022-10-19T09:47:40.287Z,22.38
2022-10-19T09:50:25.563Z,20.95
2022-10-19T09:53:18.217Z,17.80
2022-10-19T09:55:50.559Z,22.38
2022-10-19T09:58:19.970Z,28.75
2022-10-19T10:00:46.656Z,23.33
2022-10-19T10:03:40.300Z,29.45
2022-10-19T10:06:10.230Z,22.50
2022-10-19T10:08:40.023Z,26.85
2022-10-19T10:11:24.809Z,24.98
2022-10-19T10:13:54.116Z,26.38
2022-10-19T10:16:23.077Z,20.27
2022-10-19T10:18:59.618Z,27.88
2022-10-19T10:21:28.667Z,26.87
2022-10-19T10:24:02.716Z,25.52
2022-10-19T10:26:29.504Z,25.27
2022-10-19T10:31:29.732Z,24.90
2022-10-19T10:34:16.245Z,20.80
2022-10-19T10:36:53.931Z,21.60
2022-10-19T10:39:20.630Z,23.08
2022-10-19T10:41:48.944Z,24.92
2022-10-19T10:44:21.018Z,24.98
2022-10-19T10:47:14.038Z,27.10
2022-10-19T10:49:42.587Z,27.58
2022-10-19T10:52:14.651Z,21.50
2022-10-19T10:54:56.834Z,17.90
2022-10-19T10:57:28.047Z,19.27
2022-10-19T11:00:11.113Z,25.77
2022-10-19T11:03:11.818Z,19.13
2022-10-19T11:05:45.668Z,20.60
2022-10-19T11:08:12.324Z,23.65
2022-10-19T11:11:16.881Z,20.95
2022-10-19T11:13:56.847Z,16.88
2022-10-19T11:16:33.528Z,18.88
2022-10-19T11:22:13.079Z,19.95
2022-10-19T11:24:58.366Z,19.02
2022-10-19T11:27:50.230Z,22.25
2022-10-19T11:30:20.183Z,18.25
2022-10-19T11:33:15.993Z,18.17
2022-10-19T11:35:54.081Z,18.23
2022-10-19T11:38:35.067Z,12.27
2022-10-19T11:41:22.383Z,24.73
2022-10-19T11:44:10.936Z,14.93
2022-10-19T11:47:05.756Z,14.55
2022-10-19T11:49:38.392Z,17.85
2022-10-19T11:52:30.049Z,12.77
2022-10-19T11:55:27.320Z,16.70
2022-10-19T11:58:38.704Z,16.43
2022-10-19T12:01:22.654Z,13.00
2022-10-19T12:04:04.511Z,12.60
2022-10-19T12:06:40.642Z,10.52
2022-10-19T12:09:27.996Z,13.32
2022-10-19T12:12:14.727Z,13.02
2022-10-19T12:14:44.883Z,13.27
2022-10-19T12:17:20.204Z,14.32
2022-10-19T12:19:50.706Z,14.80
2022-10-19T12:22:23.590Z,13.50
2022-10-19T12:24:50.861Z,15.10
2022-10-19T12:27:24.381Z,14.05
2022-10-19T12:29:52.193Z,14.57
2022-10-19T12:32:23.106Z,13.10
2022-10-19T12:34:56.328Z,14.23
2022-10-19T12:37:45.914Z,15.05
2022-10-19T12:40:34.287Z,12.23
2022-10-19T12:43:08.471Z,16.38
2022-10-19T12:45:43.791Z,20.95
2022-10-19T12:48:14.379Z,10.77
2022-10-19T12:50:50.013Z,16.73
2022-10-19T12:53:36.358Z,16.35
2022-10-19T12:56:07.423Z,13.93
2022-10-19T12:58:57.354Z,16.63
2022-10-19T13:01:33.337Z,12.68
2022-10-19T13:04:13.705Z,13.25
2022-10-19T13:06:57.230Z,9.82
2022-10-19T13:09:30.337Z,12.32
2022-10-19T13:12:19.486Z,14.90
2022-10-19T13:14:53.100Z,12.88
2022-10-19T13:17:38.022Z,18.88
2022-10-19T13:20:13.980Z,13.70
2022-10-19T13:22:51.012Z,13.70
2022-10-19T13:25:33.855Z,15.27
2022-10-19T13:28:06.640Z,14.05
2022-10-19T13:30:39.193Z,16.38
2022-10-19T13:33:33.380Z,15.15
2022-10-19T13:36:00.225Z,15.70
2022-10-19T13:38:40.766Z,13.88
2022-10-19T13:41:21.713Z,16.35
2022-10-19T13:43:55.136Z,18.48
2022-10-19T13:46:30.595Z,17.60
2022-10-19T13:49:12.079Z,14.02
2022-10-19T13:51:52.573Z,18.38
2022-10-19T13:54:28.779Z,19.08
2022-10-19T13:57:11.646Z,14.00
2022-10-19T14:00:04.858Z,19.95
2022-10-19T14:02:50.920Z,13.75
2022-10-19T14:05:32.716Z,18.75
2022-10-19T14:08:20.996Z,19.20
2022-10-19T14:11:16.987Z,17.25
2022-10-19T14:13:44.162Z,13.60
2022-10-19T14:16:20.540Z,18.27
2022-10-19T14:18:55.627Z,16.48
2022-10-19T14:21:36.842Z,20.67
2022-10-19T14:24:20.646Z,12.23
2022-10-19T14:26:47.338Z,14.75
2022-10-19T14:29:14.196Z,16.05
2022-10-19T14:31:41.068Z,15.77
2022-10-19T14:34:09.217Z,15.85
2022-10-19T14:36:44.863Z,12.55
2022-10-19T14:39:32.077Z,14.02
2022-10-19T14:42:09.250Z,15.75
2022-10-19T14:47:26.520Z,16.85
2022-10-19T14:49:53.448Z,15.35
2022-10-19T14:55:11.513Z,13.65
2022-10-19T14:57:42.968Z,10.02
2022-10-19T15:00:21.113Z,21.90
2022-10-19T15:03:04.537Z,13.07
2022-10-19T15:05:34.455Z,17.60
2022-10-19T15:08:09.924Z,18.30
2022-10-19T15:10:46.082Z,15.80
2022-10-19T15:13:25.941Z,16.02
2022-10-19T15:15:55.041Z,18.38
2022-10-19T15:18:47.706Z,13.20
2022-10-19T15:21:18.163Z,16.17
2022-10-19T15:23:50.517Z,13.48
2022-10-19T15:26:26.453Z,11.85
2022-10-19T15:28:55.194Z,17.10
2022-10-19T15:31:26.626Z,11.57
2022-10-19T15:33:59.937Z,16.42
2022-10-19T15:36:28.758Z,17.80
2022-10-19T15:39:06.262Z,10.98
2022-10-19T15:41:45.163Z,8.40
2022-10-19T15:44:41.907Z,9.10
2022-10-19T15:47:14.704Z,14.13
2022-10-19T15:49:41.394Z,8.93
2022-10-19T15:54:48.149Z,28.60
2022-10-19T15:57:37.504Z,17.65
2022-10-19T16:00:12.100Z,13.57
2022-10-19T16:02:39.132Z,11.88
2022-10-19T16:07:40.091Z,11.00
2022-10-19T16:10:08.371Z,11.93
2022-10-19T16:12:35.116Z,9.70
2022-10-19T16:17:28.503Z,16.10
2022-10-19T16:22:21.926Z,16.83
2022-10-19T16:27:16.190Z,13.55
2022-10-19T16:29:44.268Z,38.38
2022-10-19T16:32:11.175Z,16.33
2022-10-19T16:34:38.100Z,17.00
2022-10-19T16:37:06.910Z,15.15
2022-10-19T16:39:34.378Z,11.95
2022-10-19T16:42:01.271Z,13.30
2022-10-19T16:44:28.119Z,15.63
2022-10-19T16:46:56.955Z,18.48
2022-10-19T16:49:23.881Z,17.42
2022-10-19T16:51:53.257Z,18.02
2022-10-19T16:54:23.323Z,21.13
2022-10-19T16:56:50.185Z,18.88
2022-10-19T16:59:18.632Z,17.73
2022-10-19T17:01:46.321Z,18.92
2022-10-19T17:04:15.176Z,21.55
2022-10-19T17:06:42.082Z,19.00
2022-10-19T17:11:55.867Z,17.17
2022-10-19T17:14:22.518Z,20.02
2022-10-19T17:16:49.253Z,20.38
2022-10-19T17:21:42.753Z,18.65
2022-10-19T17:24:20.236Z,18.40
2022-10-19T17:26:48.818Z,13.30
2022-10-19T17:29:15.624Z,15.35
2022-10-19T17:31:42.737Z,11.15
2022-10-19T17:34:10.331Z,17.75
2022-10-19T17:36:44.415Z,16.58
2022-10-19T17:39:17.778Z,20.92
2022-10-19T17:41:45.890Z,16.77
2022-10-19T17:44:13.018Z,16.95
2022-10-19T17:46:39.873Z,22.30
2022-10-19T17:49:06.770Z,17.25
2022-10-19T17:51:35.508Z,17.52
2022-10-19T17:54:04.940Z,20.13
2022-10-19T17:56:31.804Z,17.00
2022-10-19T17:58:59.461Z,20.85
2022-10-19T18:01:26.814Z,25.38
2022-10-19T18:03:53.839Z,22.15
2022-10-19T18:06:31.270Z,21.92
2022-10-19T18:08:59.567Z,19.08
2022-10-19T18:11:38.509Z,23.88
2022-10-19T18:14:06.195Z,22.98
2022-10-19T18:16:39.211Z,22.20
2022-10-19T18:19:06.823Z,17.05
2022-10-19T18:21:38.517Z,19.38
2022-10-19T18:24:07.458Z,17.45
2022-10-19T18:26:35.834Z,19.42
2022-10-19T18:29:10.780Z,18.63
2022-10-19T18:31:39.204Z,21.35
2022-10-19T18:34:07.886Z,22.25
2022-10-19T18:36:34.913Z,23.80
2022-10-19T18:39:03.753Z,23.52
2022-10-19T18:41:30.691Z,16.98
2022-10-19T18:44:03.623Z,27.85
2022-10-19T18:46:31.832Z,20.13
2022-10-19T18:49:00.351Z,18.10
2022-10-19T18:51:27.987Z,23.58
2022-10-19T18:53:55.307Z,19.63
2022-10-19T18:56:24.818Z,16.95
2022-10-19T18:58:51.806Z,18.48
2022-10-19T19:01:26.465Z,18.90
2022-10-19T19:03:55.631Z,16.92
2022-10-19T19:06:29.983Z,20.35
2022-10-19T19:08:58.206Z,16.55
2022-10-19T19:11:32.994Z,21.70
2022-10-19T19:14:06.137Z,15.65
2022-10-19T19:16:35.576Z,14.23
2022-10-19T19:19:02.930Z,14.35
2022-10-19T19:21:31.143Z,15.25
2022-10-19T19:24:00.765Z,18.08
2022-10-19T19:26:31.412Z,13.40
2022-10-19T19:28:58.147Z,20.90
2022-10-19T19:33:52.104Z,19.33
2022-10-19T19:36:19.964Z,18.35
2022-10-19T19:38:48.959Z,17.45
2022-10-19T19:41:16.467Z,18.55
2022-10-19T19:43:43.726Z,29.27
2022-10-19T19:46:18.724Z,20.65
2022-10-19T19:48:47.345Z,16.60
2022-10-19T19:51:16.716Z,20.45
2022-10-19T19:53:44.099Z,18.13
2022-10-19T19:56:11.987Z,22.33
2022-10-19T19:58:39.250Z,17.38
2022-10-19T20:01:24.866Z,27.65
2022-10-19T20:03:52.104Z,25.50
2022-10-19T20:06:23.535Z,26.55
2022-10-19T20:08:53.217Z,32.85
2022-10-19T20:11:20.126Z,24.80
2022-10-19T20:16:16.176Z,21.83
2022-10-19T20:18:48.674Z,20.35
2022-10-19T20:21:16.451Z,20.00
2022-10-19T20:23:46.925Z,19.55
2022-10-19T20:26:22.887Z,28.33
2022-10-19T20:28:50.206Z,19.52
2022-10-19T20:31:17.431Z,31.42
2022-10-19T20:33:44.760Z,21.25
2022-10-19T20:36:17.305Z,26.23
2022-10-19T20:38:52.830Z,26.70
2022-10-19T20:41:21.326Z,22.67
2022-10-19T20:43:48.114Z,18.88
2022-10-19T20:48:45.956Z,18.80
2022-10-19T20:51:29.106Z,15.05
2022-10-19T20:54:01.147Z,18.25
2022-10-19T20:56:33.451Z,17.63
2022-10-19T20:59:05.231Z,19.13
2022-10-19T21:01:33.817Z,20.20
2022-10-19T21:04:03.258Z,14.45
2022-10-19T21:06:31.753Z,15.18
2022-10-19T21:08:59.114Z,18.17
2022-10-19T21:11:31.786Z,23.45
2022-10-19T21:14:03.866Z,24.17
2022-10-19T21:16:33.841Z,19.75
2022-10-19T21:19:01.837Z,24.30
2022-10-19T21:21:34.385Z,21.42
2022-10-19T21:24:04.715Z,28.10
2022-10-19T21:26:33.827Z,24.15
2022-10-19T21:29:01.159Z,26.05
2022-10-19T21:31:28.367Z,28.33
2022-10-19T21:33:55.131Z,23.75
2022-10-19T21:38:49.278Z,22.45
2022-10-19T21:43:50.310Z,22.90
2022-10-19T21:46:19.847Z,44.75
2022-10-19T21:48:46.901Z,28.38
2022-10-19T21:51:38.063Z,27.58
2022-10-19T21:54:06.417Z,36.17
2022-10-19T21:56:34.253Z,30.33
2022-10-19T21:59:01.064Z,36.63
2022-10-19T22:04:00.721Z,32.33
2022-10-19T22:06:29.927Z,36.88
2022-10-19T22:08:57.291Z,24.00
2022-10-19T22:11:25.445Z,29.08
2022-10-19T22:13:56.508Z,25.10
2022-10-19T22:16:24.172Z,26.60
2022-10-19T22:18:51.431Z,23.17
2022-10-19T22:21:26.946Z,24.45
2022-10-19T22:23:56.286Z,19.23
2022-10-19T22:26:26.103Z,21.58
2022-10-19T22:28:54.541Z,26.60
2022-10-19T22:31:21.358Z,33.00
2022-10-19T22:33:48.237Z,28.50
2022-10-19T22:38:42.665Z,22.95
2022-10-19T22:41:09.413Z,30.38
2022-10-19T22:47:55.891Z,28.38
2022-10-19T22:51:37.997Z,28.02
2022-10-19T22:54:23.291Z,25.90
2022-10-19T22:56:49.954Z,24.25
2022-10-19T23:01:43.359Z,28.38
2022-10-19T23:06:36.786Z,24.75
2022-10-19T23:09:03.756Z,21.90
2022-10-19T23:11:30.404Z,21.45
2022-10-19T23:13:57.060Z,18.05
2022-10-19T23:18:50.481Z,31.05
2022-10-19T23:23:44.246Z,42.85
2022-10-19T23:26:16.954Z,36.15
2022-10-19T23:28:47.787Z,39.95
2022-10-19T23:31:17.339Z,37.30
2022-10-19T23:33:44.420Z,40.97
2022-10-19T23:36:17.636Z,38.33
2022-10-19T23:38:45.948Z,40.13
2022-10-19T23:41:13.170Z,35.95
2022-10-19T23:43:40.543Z,36.28
2022-10-19T23:46:07.738Z,30.77
2022-10-19T23:48:35.122Z,33.85
2022-10-19T23:51:07.377Z,28.85
2022-10-19T23:53:39.896Z,27.38
2022-10-19T23:56:14.115Z,34.88
2022-10-19T23:58:41.110Z,29.92
